createdAt,value
2017-12-23T00:00:11.924Z,67.37
2017-12-23T00:02:38.352Z,64.72
2017-12-23T00:05:04.741Z,68.10
2017-12-23T00:07:31.146Z,66.57
2017-12-23T00:09:57.568Z,64.92
2017-12-23T00:12:24.013Z,65.55
2017-12-23T00:14:50.450Z,64.11
2017-12-23T00:17:16.837Z,65.82
2017-12-23T00:19:43.221Z,66.16
2017-12-23T00:22:09.682Z,64.48
2017-12-23T00:24:36.138Z,66.25
2017-12-23T00:27:03.169Z,67.31
2017-12-23T00:29:29.570Z,65.11
2017-12-23T00:31:55.969Z,65.15
2017-12-23T00:34:30.524Z,64.38
2017-12-23T00:36:56.870Z,65.28
2017-12-23T00:39:23.312Z,66.08
2017-12-23T00:41:49.728Z,65.98
2017-12-23T00:44:16.146Z,64.32
2017-12-23T00:46:42.508Z,65.31
2017-12-23T00:49:09.021Z,64.96
2017-12-23T00:51:35.382Z,66.01
2017-12-23T00:54:01.744Z,64.59
2017-12-23T00:56:28.144Z,66.18
2017-12-23T00:58:54.539Z,66.53
2017-12-23T01:01:21.028Z,67.63
2017-12-23T01:03:47.421Z,66.58
2017-12-23T01:06:13.805Z,67.08
2017-12-23T01:08:40.205Z,66.99
2017-12-23T01:11:06.708Z,65.50
2017-12-23T01:13:33.117Z,65.32
2017-12-23T01:15:59.525Z,66.64
2017-12-23T01:18:25.978Z,66.43
2017-12-23T01:20:52.393Z,66.01
2017-12-23T01:23:18.821Z,65.56
2017-12-23T01:25:45.241Z,66.52
2017-12-23T01:28:11.636Z,65.20
2017-12-23T01:30:38.030Z,66.19
2017-12-23T01:33:04.481Z,64.32
2017-12-23T01:35:30.920Z,65.30
2017-12-23T01:37:57.324Z,66.88
2017-12-23T01:40:23.768Z,67.06
2017-12-23T01:42:50.193Z,66.60
2017-12-23T01:45:16.571Z,66.58
2017-12-23T01:47:43.013Z,65.29
2017-12-23T01:50:09.426Z,66.79
2017-12-23T01:52:35.857Z,65.75
2017-12-23T01:55:02.346Z,65.11
2017-12-23T01:57:28.768Z,64.86
2017-12-23T01:59:55.153Z,65.68
2017-12-23T02:02:21.569Z,67.31
2017-12-23T02:04:47.973Z,68.05
2017-12-23T02:07:14.352Z,67.40
2017-12-23T02:09:40.886Z,66.43
2017-12-23T02:12:07.317Z,66.54
2017-12-23T02:14:33.716Z,66.54
2017-12-23T02:17:00.132Z,68.01
2017-12-23T02:19:26.525Z,66.50
2017-12-23T02:21:52.949Z,66.38
2017-12-23T02:24:19.341Z,65.66
2017-12-23T02:26:45.705Z,65.69
2017-12-23T02:29:12.097Z,66.32
2017-12-23T02:31:38.572Z,66.21
2017-12-23T02:34:05.019Z,65.87
2017-12-23T02:36:31.416Z,67.78
2017-12-23T02:38:57.893Z,67.24
2017-12-23T02:41:24.397Z,67.14
2017-12-23T02:43:50.860Z,65.79
2017-12-23T02:46:17.345Z,66.28
2017-12-23T02:48:43.677Z,65.64
2017-12-23T02:51:10.105Z,66.99
2017-12-23T02:53:36.542Z,66.56
2017-12-23T02:56:02.970Z,65.41
2017-12-23T02:58:29.354Z,66.74
2017-12-23T03:00:55.788Z,65.54
2017-12-23T03:03:22.141Z,66.00
2017-12-23T03:05:48.625Z,66.43
2017-12-23T03:08:15.217Z,65.73
2017-12-23T03:10:41.624Z,67.30
2017-12-23T03:13:08.025Z,66.71
2017-12-23T03:15:34.469Z,67.00
2017-12-23T03:18:00.836Z,66.06
2017-12-23T03:20:27.204Z,66.97
2017-12-23T03:22:53.668Z,66.70
2017-12-23T03:25:20.074Z,65.69
2017-12-23T03:27:46.520Z,66.51
2017-12-23T03:30:12.979Z,66.43
2017-12-23T03:32:39.391Z,65.50
2017-12-23T03:35:05.801Z,66.50
2017-12-23T03:37:32.252Z,65.00
2017-12-23T03:39:58.669Z,66.19
2017-12-23T03:42:25.123Z,68.20
2017-12-23T03:44:51.619Z,65.46
2017-12-23T03:47:17.981Z,66.15
2017-12-23T03:49:44.336Z,65.72
2017-12-23T03:52:10.725Z,66.55
2017-12-23T03:54:37.097Z,66.41
2017-12-23T03:57:03.513Z,65.57
2017-12-23T03:59:29.905Z,65.35
2017-12-23T04:01:56.305Z,64.30
2017-12-23T04:04:22.686Z,65.27
2017-12-23T04:06:49.101Z,65.32
2017-12-23T04:09:15.453Z,66.47
2017-12-23T04:11:41.903Z,65.42
2017-12-23T04:14:08.425Z,65.91
2017-12-23T04:16:34.856Z,65.51
2017-12-23T04:19:01.329Z,66.77
2017-12-23T04:21:27.766Z,65.47
2017-12-23T04:23:54.141Z,65.75
2017-12-23T04:26:20.573Z,64.34
2017-12-23T04:28:47.017Z,65.76
2017-12-23T04:31:13.391Z,65.26
2017-12-23T04:33:39.811Z,65.90
2017-12-23T04:36:06.305Z,64.47
2017-12-23T04:38:32.692Z,65.17
2017-12-23T04:40:59.116Z,65.12
2017-12-23T04:43:25.501Z,65.35
2017-12-23T04:45:51.908Z,65.32
2017-12-23T04:48:18.308Z,67.00
2017-12-23T04:50:44.716Z,65.56
2017-12-23T04:53:11.140Z,64.43
2017-12-23T04:55:37.541Z,64.17
2017-12-23T04:58:04.034Z,65.55
2017-12-23T05:00:30.425Z,65.43
2017-12-23T05:02:56.857Z,63.63
2017-12-23T05:05:23.260Z,64.49
2017-12-23T05:07:49.634Z,64.37
2017-12-23T05:10:15.997Z,64.30
2017-12-23T05:12:42.456Z,65.19
2017-12-23T05:15:08.876Z,64.17
2017-12-23T05:17:35.269Z,64.14
2017-12-23T05:20:01.729Z,64.91
2017-12-23T05:22:28.125Z,64.08
2017-12-23T05:24:54.485Z,64.23
2017-12-23T05:27:20.970Z,64.44
2017-12-23T05:29:47.313Z,64.47
2017-12-23T05:32:13.688Z,64.44
2017-12-23T05:34:40.078Z,64.48
2017-12-23T05:37:07.001Z,64.58
2017-12-23T05:39:33.377Z,65.12
2017-12-23T05:41:59.793Z,65.17
2017-12-23T05:44:26.228Z,65.30
2017-12-23T05:46:52.596Z,64.87
2017-12-23T05:49:19.010Z,65.30
2017-12-23T05:51:45.357Z,65.49
2017-12-23T05:54:11.714Z,66.66
2017-12-23T05:56:38.205Z,64.07
2017-12-23T05:59:04.579Z,64.64
2017-12-23T06:01:30.963Z,64.80
2017-12-23T06:03:57.472Z,64.82
2017-12-23T06:06:23.901Z,64.97
2017-12-23T06:08:50.384Z,65.01
2017-12-23T06:11:16.931Z,65.45
2017-12-23T06:13:43.364Z,64.66
2017-12-23T06:16:09.738Z,63.93
2017-12-23T06:18:36.143Z,63.67
2017-12-23T06:21:02.557Z,64.06
2017-12-23T06:23:28.921Z,63.88
2017-12-23T06:25:55.326Z,63.90
2017-12-23T06:28:21.837Z,65.37
2017-12-23T06:30:48.229Z,63.84
2017-12-23T06:33:14.702Z,63.91
2017-12-23T06:35:41.109Z,64.35
2017-12-23T06:38:07.517Z,64.31
2017-12-23T06:40:34.013Z,64.67
2017-12-23T06:43:00.379Z,65.16
2017-12-23T06:45:26.777Z,64.39
2017-12-23T06:47:53.217Z,63.57
2017-12-23T06:50:19.617Z,63.53
2017-12-23T06:52:46.005Z,65.01
2017-12-23T06:55:12.462Z,63.35
2017-12-23T06:57:38.853Z,64.53
2017-12-23T07:00:05.201Z,64.32
2017-12-23T07:02:31.669Z,64.57
2017-12-23T07:04:58.121Z,63.57
2017-12-23T07:07:24.485Z,64.76
2017-12-23T07:09:50.977Z,65.02
2017-12-23T07:12:17.466Z,64.19
2017-12-23T07:14:43.837Z,64.01
2017-12-23T07:17:10.242Z,64.63
2017-12-23T07:19:36.593Z,64.39
2017-12-23T07:22:02.974Z,64.64
2017-12-23T07:24:29.393Z,64.77
2017-12-23T07:26:55.740Z,63.87
2017-12-23T07:29:22.096Z,64.18
2017-12-23T07:31:48.522Z,63.87
2017-12-23T07:34:14.894Z,63.65
2017-12-23T07:36:41.269Z,63.69
2017-12-23T07:39:07.781Z,64.15
2017-12-23T07:41:34.199Z,63.73
2017-12-23T07:44:00.596Z,63.51
2017-12-23T07:46:27.065Z,63.49
2017-12-23T07:48:53.481Z,64.50
2017-12-23T07:51:19.892Z,64.42
2017-12-23T07:53:46.289Z,64.13
2017-12-23T07:56:12.664Z,64.44
2017-12-23T07:58:39.049Z,64.25
2017-12-23T08:01:05.504Z,64.07
2017-12-23T08:03:31.879Z,63.97
2017-12-23T08:05:58.368Z,63.80
2017-12-23T08:08:24.881Z,63.49
2017-12-23T08:10:51.313Z,63.02
2017-12-23T08:13:17.744Z,63.22
2017-12-23T08:15:44.177Z,63.08
2017-12-23T08:18:10.570Z,62.78
2017-12-23T08:20:36.994Z,62.94
2017-12-23T08:23:03.424Z,63.18
2017-12-23T08:25:29.793Z,63.64
2017-12-23T08:27:56.198Z,63.19
2017-12-23T08:30:22.601Z,62.92
2017-12-23T08:32:48.981Z,62.86
2017-12-23T08:35:15.406Z,62.81
2017-12-23T08:37:41.923Z,62.92
2017-12-23T08:40:08.306Z,62.79
2017-12-23T08:42:34.825Z,62.84
2017-12-23T08:45:01.221Z,62.96
2017-12-23T08:47:27.609Z,62.90
2017-12-23T08:49:53.989Z,63.42
2017-12-23T08:52:20.389Z,63.26
2017-12-23T08:54:46.752Z,63.20
2017-12-23T08:57:14.953Z,63.00
2017-12-23T08:59:41.436Z,63.07
2017-12-23T09:02:07.814Z,62.83
2017-12-23T09:04:34.209Z,63.13
2017-12-23T09:07:00.664Z,63.10
2017-12-23T09:09:27.060Z,63.37
2017-12-23T09:11:53.494Z,63.20
2017-12-23T09:14:19.886Z,63.06
2017-12-23T09:16:46.333Z,63.06
2017-12-23T09:19:12.735Z,62.97
2017-12-23T09:21:39.156Z,63.25
2017-12-23T09:24:05.510Z,63.19
2017-12-23T09:26:31.931Z,63.32
2017-12-23T09:28:58.381Z,62.86
2017-12-23T09:31:24.782Z,62.67
2017-12-23T09:33:51.113Z,62.82
2017-12-23T09:36:17.526Z,63.26
2017-12-23T09:38:43.891Z,62.82
2017-12-23T09:41:10.270Z,62.70
2017-12-23T09:43:36.770Z,62.55
2017-12-23T09:46:03.108Z,62.83
2017-12-23T09:48:29.525Z,62.94
2017-12-23T09:50:55.966Z,62.84
2017-12-23T09:53:22.349Z,62.69
2017-12-23T09:55:48.737Z,62.37
2017-12-23T09:58:15.152Z,62.13
2017-12-23T10:00:41.525Z,61.80
2017-12-23T10:03:07.967Z,61.88
2017-12-23T10:05:34.421Z,61.81
2017-12-23T10:08:00.889Z,61.95
2017-12-23T10:10:27.301Z,61.58
2017-12-23T10:12:53.709Z,60.83
2017-12-23T10:15:20.153Z,61.28
2017-12-23T10:17:46.837Z,61.34
2017-12-23T10:20:13.282Z,61.04
2017-12-23T10:22:39.662Z,60.52
2017-12-23T10:25:06.066Z,60.52
2017-12-23T10:27:32.557Z,60.76
2017-12-23T10:29:58.966Z,60.76
2017-12-23T10:32:25.337Z,60.62
2017-12-23T10:34:51.745Z,60.37
2017-12-23T10:37:18.144Z,60.68
2017-12-23T10:39:44.507Z,60.73
2017-12-23T10:42:10.893Z,60.93
2017-12-23T10:44:37.321Z,61.26
2017-12-23T10:47:03.692Z,61.51
2017-12-23T10:49:30.149Z,61.21
2017-12-23T10:51:56.497Z,61.50
2017-12-23T10:54:22.937Z,61.44
2017-12-23T10:56:49.388Z,61.52
2017-12-23T10:59:15.749Z,61.80
2017-12-23T11:01:42.150Z,61.61
2017-12-23T11:04:08.649Z,61.79
2017-12-23T11:06:35.115Z,62.11
2017-12-23T11:09:01.513Z,61.98
2017-12-23T11:11:27.974Z,62.00
2017-12-23T11:13:54.375Z,61.83
2017-12-23T11:16:20.757Z,62.75
2017-12-23T11:18:47.175Z,62.82
2017-12-23T11:21:13.566Z,62.61
2017-12-23T11:23:39.949Z,62.45
2017-12-23T11:26:06.413Z,62.82
2017-12-23T11:28:32.866Z,62.92
2017-12-23T11:30:59.230Z,62.40
2017-12-23T11:33:25.815Z,62.73
2017-12-23T11:35:52.375Z,62.21
2017-12-23T11:38:18.825Z,62.67
2017-12-23T11:40:45.315Z,62.37
2017-12-23T11:43:11.725Z,62.57
2017-12-23T11:45:38.147Z,62.62
2017-12-23T11:48:04.618Z,63.08
2017-12-23T11:50:30.981Z,62.44
2017-12-23T11:52:57.426Z,62.33
2017-12-23T11:55:23.893Z,63.10
2017-12-23T11:57:50.268Z,63.45
2017-12-23T12:00:16.683Z,63.40
2017-12-23T12:02:44.142Z,63.03
2017-12-23T12:05:10.566Z,62.54
2017-12-23T12:07:37.013Z,62.88
2017-12-23T12:10:03.442Z,62.59
2017-12-23T12:12:29.830Z,63.66
2017-12-23T12:14:56.346Z,64.38
2017-12-23T12:17:22.576Z,63.35
2017-12-23T12:19:48.807Z,63.49
2017-12-23T12:22:14.972Z,63.14
2017-12-23T12:24:41.207Z,63.04
2017-12-23T12:27:07.441Z,63.68
2017-12-23T12:29:34.421Z,64.96
2017-12-23T12:32:00.675Z,64.50
2017-12-23T12:34:26.869Z,63.62
2017-12-23T12:36:53.666Z,63.89
2017-12-23T12:39:19.999Z,63.44
2017-12-23T12:41:46.217Z,64.03
2017-12-23T12:44:12.433Z,64.58
2017-12-23T12:46:39.534Z,64.26
2017-12-23T12:49:06.015Z,63.88
2017-12-23T12:51:32.467Z,63.07
2017-12-23T12:53:58.905Z,63.01
2017-12-23T12:56:25.324Z,63.02
2017-12-23T12:58:51.729Z,62.80
2017-12-23T13:01:18.189Z,62.51
2017-12-23T13:03:44.626Z,62.37
2017-12-23T13:06:11.029Z,62.71
2017-12-23T13:08:37.484Z,62.09
2017-12-23T13:11:03.926Z,61.55
2017-12-23T13:13:30.347Z,61.91
2017-12-23T13:15:56.777Z,62.21
2017-12-23T13:18:23.198Z,61.22
2017-12-23T13:20:50.230Z,61.36
2017-12-23T13:23:16.644Z,60.37
2017-12-23T13:25:43.033Z,59.52
2017-12-23T13:28:09.442Z,59.85
2017-12-23T13:30:35.885Z,58.76
2017-12-23T13:33:02.329Z,61.28
2017-12-23T13:35:28.774Z,61.01
2017-12-23T13:37:55.266Z,59.76
2017-12-23T13:40:21.680Z,58.21
2017-12-23T13:42:48.105Z,58.60
2017-12-23T13:45:14.531Z,59.77
2017-12-23T13:47:40.942Z,60.63
2017-12-23T13:50:07.403Z,60.65
2017-12-23T13:52:33.826Z,60.31
2017-12-23T13:55:00.216Z,58.41
2017-12-23T13:57:26.666Z,59.61
2017-12-23T13:59:53.121Z,56.50
2017-12-23T14:02:19.567Z,57.22
2017-12-23T14:04:45.999Z,55.78
2017-12-23T14:07:12.430Z,55.80
2017-12-23T14:09:38.816Z,60.49
2017-12-23T14:12:05.852Z,60.50
2017-12-23T14:14:32.471Z,59.56
2017-12-23T14:16:58.848Z,58.66
2017-12-23T14:19:25.314Z,59.10
2017-12-23T14:21:51.603Z,57.94
2017-12-23T14:24:17.807Z,60.19
2017-12-23T14:26:44.018Z,57.46
2017-12-23T14:29:10.232Z,57.95
2017-12-23T14:31:36.459Z,58.17
2017-12-23T14:34:02.648Z,56.60
2017-12-23T14:36:28.860Z,54.99
2017-12-23T14:38:55.123Z,57.79
2017-12-23T14:41:21.338Z,58.92
2017-12-23T14:43:47.629Z,59.26
2017-12-23T14:46:13.850Z,58.09
2017-12-23T14:48:40.035Z,58.54
2017-12-23T14:51:06.307Z,55.71
2017-12-23T14:53:32.464Z,54.69
2017-12-23T14:55:58.660Z,56.51
2017-12-23T14:58:24.849Z,56.31
2017-12-23T15:00:51.058Z,55.98
2017-12-23T15:03:17.252Z,55.87
2017-12-23T15:05:43.501Z,56.74
2017-12-23T15:08:09.736Z,58.87
2017-12-23T15:10:35.973Z,55.46
2017-12-23T15:13:02.184Z,57.74
2017-12-23T15:15:28.417Z,55.78
2017-12-23T15:17:54.678Z,55.46
2017-12-23T15:20:20.933Z,57.31
2017-12-23T15:22:47.124Z,59.54
2017-12-23T15:25:13.361Z,57.53
2017-12-23T15:27:39.561Z,56.45
2017-12-23T15:30:05.792Z,57.13
2017-12-23T15:32:31.992Z,60.60
2017-12-23T15:34:58.212Z,58.36
2017-12-23T15:37:24.360Z,61.73
2017-12-23T15:39:50.566Z,60.23
2017-12-23T15:42:16.776Z,60.29
2017-12-23T15:44:42.959Z,59.58
2017-12-23T15:47:09.613Z,60.09
2017-12-23T15:49:35.969Z,61.08
2017-12-23T15:52:02.157Z,61.24
2017-12-23T15:54:28.357Z,60.34
2017-12-23T15:56:54.596Z,61.39
2017-12-23T15:59:20.776Z,60.13
2017-12-23T16:01:46.975Z,61.47
2017-12-23T16:04:13.197Z,59.12
2017-12-23T16:06:39.405Z,58.49
2017-12-23T16:09:05.593Z,61.15
2017-12-23T16:11:31.886Z,59.95
2017-12-23T16:13:58.128Z,61.43
2017-12-23T16:16:24.389Z,61.04
2017-12-23T16:18:50.693Z,61.01
2017-12-23T16:21:16.881Z,58.95
2017-12-23T16:23:43.089Z,60.37
2017-12-23T16:26:09.328Z,61.36
2017-12-23T16:28:36.449Z,60.91
2017-12-23T16:31:02.672Z,60.28
2017-12-23T16:33:28.877Z,60.20
2017-12-23T16:35:55.053Z,61.72
2017-12-23T16:38:21.261Z,61.06
2017-12-23T16:40:47.489Z,61.02
2017-12-23T16:43:13.782Z,60.21
2017-12-23T16:45:39.961Z,60.53
2017-12-23T16:48:06.217Z,59.73
2017-12-23T16:50:32.418Z,58.16
2017-12-23T16:52:58.593Z,62.59
2017-12-23T16:55:24.824Z,62.75
2017-12-23T16:57:51.093Z,60.00
2017-12-23T17:00:17.389Z,59.11
2017-12-23T17:02:43.653Z,61.01
2017-12-23T17:05:09.845Z,59.60
2017-12-23T17:07:36.072Z,59.21
2017-12-23T17:10:02.599Z,60.39
2017-12-23T17:12:28.827Z,59.03
2017-12-23T17:14:55.037Z,60.64
2017-12-23T17:17:21.249Z,61.30
2017-12-23T17:19:47.425Z,62.77
2017-12-23T17:22:13.633Z,61.42
2017-12-23T17:24:39.853Z,61.32
2017-12-23T17:27:06.049Z,59.74
2017-12-23T17:29:38.380Z,63.27
2017-12-23T17:32:04.620Z,59.09
2017-12-23T17:34:30.840Z,58.89
2017-12-23T17:36:57.393Z,59.28
2017-12-23T17:39:23.653Z,62.72
2017-12-23T17:41:49.825Z,60.65
2017-12-23T17:44:16.007Z,63.31
2017-12-23T17:46:42.268Z,62.97
2017-12-23T17:49:08.437Z,63.04
2017-12-23T17:51:35.472Z,60.31
2017-12-23T17:54:01.689Z,60.08
2017-12-23T17:56:27.892Z,60.41
2017-12-23T17:58:54.064Z,62.37
2017-12-23T18:01:20.286Z,61.93
2017-12-23T18:03:46.445Z,62.73
2017-12-23T18:06:12.601Z,63.33
2017-12-23T18:08:38.813Z,62.70
2017-12-23T18:11:05.385Z,64.49
2017-12-23T18:13:31.572Z,63.45
2017-12-23T18:15:57.804Z,63.69
2017-12-23T18:18:24.001Z,64.59
2017-12-23T18:20:50.172Z,64.06
2017-12-23T18:23:16.374Z,63.80
2017-12-23T18:25:42.653Z,64.86
2017-12-23T18:28:08.880Z,65.52
2017-12-23T18:30:35.078Z,65.68
2017-12-23T18:33:01.240Z,66.14
2017-12-23T18:35:27.421Z,66.83
2017-12-23T18:37:53.675Z,67.00
2017-12-23T18:40:19.841Z,67.22
2017-12-23T18:42:46.044Z,67.25
2017-12-23T18:45:12.333Z,67.26
2017-12-23T18:47:38.514Z,67.78
2017-12-23T18:50:04.714Z,68.49
2017-12-23T18:52:30.960Z,68.87
2017-12-23T18:54:57.133Z,68.56
2017-12-23T18:57:23.684Z,68.44
2017-12-23T18:59:49.873Z,68.33
2017-12-23T19:02:16.035Z,68.49
2017-12-23T19:04:42.205Z,68.93
2017-12-23T19:07:08.466Z,68.80
2017-12-23T19:09:34.645Z,68.29
2017-12-23T19:12:00.813Z,68.14
2017-12-23T19:14:27.059Z,68.38
2017-12-23T19:16:53.317Z,68.44
2017-12-23T19:19:19.504Z,68.87
2017-12-23T19:21:45.768Z,68.33
2017-12-23T19:24:12.909Z,68.21
2017-12-23T19:26:39.130Z,68.35
2017-12-23T19:29:05.357Z,67.85
2017-12-23T19:31:31.517Z,67.56
2017-12-23T19:33:57.710Z,67.46
2017-12-23T19:36:23.949Z,67.75
2017-12-23T19:38:50.140Z,67.76
2017-12-23T19:41:16.295Z,67.28
2017-12-23T19:43:42.520Z,66.90
2017-12-23T19:46:08.723Z,67.55
2017-12-23T19:48:34.901Z,66.94
2017-12-23T19:51:01.150Z,66.90
2017-12-23T19:53:27.345Z,66.65
2017-12-23T19:55:53.544Z,66.45
2017-12-23T19:58:19.783Z,66.27
2017-12-23T20:00:46.028Z,66.62
2017-12-23T20:03:12.284Z,66.25
2017-12-23T20:05:38.577Z,66.33
2017-12-23T20:08:04.840Z,66.49
2017-12-23T20:10:31.035Z,66.15
2017-12-23T20:12:57.270Z,66.60
2017-12-23T20:15:23.465Z,66.08
2017-12-23T20:17:49.656Z,66.19
2017-12-23T20:20:15.832Z,66.10
2017-12-23T20:22:41.997Z,66.06
2017-12-23T20:25:08.176Z,66.07
2017-12-23T20:27:34.413Z,65.83
2017-12-23T20:30:00.589Z,65.83
2017-12-23T20:32:26.757Z,65.43
2017-12-23T20:34:53.012Z,65.66
2017-12-23T20:37:19.186Z,66.08
2017-12-23T20:39:45.353Z,66.27
2017-12-23T20:42:11.559Z,67.02
2017-12-23T20:44:37.750Z,66.44
2017-12-23T20:47:03.907Z,66.26
2017-12-23T20:49:30.096Z,66.32
2017-12-23T20:51:56.260Z,66.46
2017-12-23T20:54:22.442Z,65.79
2017-12-23T20:56:48.656Z,65.57
2017-12-23T20:59:14.814Z,65.66
2017-12-23T21:01:41.064Z,66.06
2017-12-23T21:04:07.289Z,66.08
2017-12-23T21:06:33.553Z,65.83
2017-12-23T21:08:59.772Z,65.82
2017-12-23T21:11:25.994Z,65.92
2017-12-23T21:13:52.153Z,65.69
2017-12-23T21:16:18.316Z,65.86
2017-12-23T21:18:44.541Z,65.91
2017-12-23T21:21:10.725Z,66.11
2017-12-23T21:23:36.896Z,65.91
2017-12-23T21:26:03.102Z,66.04
2017-12-23T21:28:29.254Z,66.17
2017-12-23T21:30:55.424Z,66.01
2017-12-23T21:33:21.611Z,65.77
2017-12-23T21:35:47.786Z,66.17
2017-12-23T21:38:13.945Z,66.08
2017-12-23T21:40:40.141Z,65.89
2017-12-23T21:43:06.297Z,65.98
2017-12-23T21:45:32.462Z,65.78
2017-12-23T21:47:58.671Z,66.24
2017-12-23T21:50:24.861Z,66.47
2017-12-23T21:52:51.090Z,66.61
2017-12-23T21:55:17.296Z,66.47
2017-12-23T21:57:43.467Z,67.16
2017-12-23T22:00:09.649Z,66.95
2017-12-23T22:02:35.900Z,66.85
2017-12-23T22:05:02.425Z,67.11
2017-12-23T22:07:28.609Z,67.13
2017-12-23T22:09:54.794Z,67.22
2017-12-23T22:12:20.978Z,67.81
2017-12-23T22:14:47.147Z,68.03
2017-12-23T22:17:13.492Z,68.52
2017-12-23T22:19:39.706Z,68.20
2017-12-23T22:22:06.310Z,67.60
2017-12-23T22:24:32.568Z,67.41
2017-12-23T22:26:58.756Z,67.77
2017-12-23T22:29:24.968Z,67.94
2017-12-23T22:31:51.190Z,68.25
2017-12-23T22:34:17.387Z,67.81
2017-12-23T22:36:43.601Z,67.71
2017-12-23T22:39:09.906Z,67.75
2017-12-23T22:41:36.073Z,67.78
2017-12-23T22:44:02.190Z,67.58
2017-12-23T22:46:28.429Z,67.63
2017-12-23T22:48:54.592Z,67.45
2017-12-23T22:51:20.809Z,67.64
2017-12-23T22:53:47.055Z,67.55
2017-12-23T22:56:13.217Z,67.18
2017-12-23T22:58:39.417Z,66.94
2017-12-23T23:01:05.652Z,66.79
2017-12-23T23:03:32.067Z,66.81
2017-12-23T23:05:58.227Z,67.01
2017-12-23T23:08:24.479Z,67.06
2017-12-23T23:10:50.642Z,67.43
2017-12-23T23:13:16.879Z,67.86
2017-12-23T23:15:43.101Z,68.08
2017-12-23T23:18:09.350Z,67.81
2017-12-23T23:20:35.505Z,67.81
2017-12-23T23:23:01.812Z,67.66
2017-12-23T23:25:28.025Z,67.38
2017-12-23T23:27:54.185Z,67.50
2017-12-23T23:30:20.459Z,67.51
2017-12-23T23:32:46.673Z,67.41
2017-12-23T23:35:12.910Z,67.34
2017-12-23T23:37:39.202Z,67.35
2017-12-23T23:40:05.388Z,67.74
2017-12-23T23:42:31.595Z,68.60
2017-12-23T23:44:57.806Z,68.11
2017-12-23T23:47:23.966Z,68.39
2017-12-23T23:49:50.159Z,68.57
2017-12-23T23:52:16.404Z,68.25
2017-12-23T23:54:42.575Z,68.64
2017-12-23T23:57:08.946Z,69.26
2017-12-23T23:59:35.528Z,68.96
